Terminal Aerodrome Forecast
Issued by NWS Sterling, VA

Current Version | Previous Version | Graphics & Text | Print | Product List | Glossary On
Versions: 1 2 3 4 5 6 7 8 9 10 11 12 13 14 15 16 17
000
FTUS41 KLWX 211700 RRA
TAFMRB
TAF
KMRB 211746Z 2118/2218 28005KT P6SM VCSH OVC040
     FM212300 31005KT P6SM OVC025
     FM220600 33006KT 5SM -SHRA OVC015
     FM221100 34011G18KT P6SM OVC025=

USA.gov is the U.S. government's official web portal to all federal, state and local government web resources and services.